createdAt,value
2019-01-20T00:03:37.314Z,100.00
2019-01-20T00:08:41.355Z,100.00
2019-01-20T00:13:45.442Z,100.00
2019-01-20T00:18:49.501Z,100.00
2019-01-20T00:23:54.129Z,100.00
2019-01-20T00:28:58.252Z,100.00
2019-01-20T00:34:02.287Z,100.00
2019-01-20T00:39:08.352Z,100.00
2019-01-20T00:44:12.436Z,100.00
2019-01-20T00:49:16.476Z,100.00
2019-01-20T00:54:20.532Z,100.00
2019-01-20T00:59:24.638Z,100.00
2019-01-20T01:04:28.752Z,100.00
2019-01-20T01:09:33.885Z,100.00
2019-01-20T01:14:37.952Z,100.00
2019-01-20T01:19:42.003Z,100.00
2019-01-20T01:24:46.053Z,100.00
2019-01-20T01:29:50.080Z,100.00
2019-01-20T01:34:54.113Z,100.00
2019-01-20T01:39:58.124Z,100.00
2019-01-20T01:45:02.208Z,100.00
2019-01-20T01:50:06.737Z,100.00
2019-01-20T01:55:11.235Z,100.00
2019-01-20T02:00:20.805Z,100.00
2019-01-20T02:05:24.836Z,100.00
2019-01-20T02:10:28.915Z,100.00
2019-01-20T02:15:32.995Z,100.00
2019-01-20T02:20:37.001Z,100.00
2019-01-20T02:25:41.036Z,100.00
2019-01-20T02:30:45.084Z,100.00
2019-01-20T02:35:49.125Z,100.00
2019-01-20T02:40:53.441Z,100.00
2019-01-20T02:45:57.764Z,100.00
2019-01-20T02:51:02.145Z,100.00
2019-01-20T02:56:06.255Z,100.00
2019-01-20T03:01:10.324Z,100.00
2019-01-20T03:06:14.337Z,100.00
2019-01-20T03:11:18.390Z,100.00
2019-01-20T03:16:22.426Z,100.00
2019-01-20T03:21:26.472Z,100.00
2019-01-20T03:26:30.520Z,100.00
2019-01-20T03:31:34.692Z,100.00
2019-01-20T03:36:38.802Z,100.00
2019-01-20T03:41:42.924Z,100.00
2019-01-20T03:46:48.400Z,100.00
2019-01-20T03:51:52.508Z,100.00
2019-01-20T03:56:56.543Z,100.00
2019-01-20T04:02:00.585Z,100.00
2019-01-20T04:07:04.636Z,100.00
2019-01-20T04:12:08.688Z,100.00
2019-01-20T04:17:13.058Z,100.00
2019-01-20T04:22:17.122Z,100.00
2019-01-20T04:27:21.205Z,100.00
2019-01-20T04:32:25.231Z,100.00
2019-01-20T04:37:29.263Z,100.00
2019-01-20T04:42:33.333Z,100.00
2019-01-20T04:47:37.447Z,100.00
2019-01-20T04:52:41.687Z,100.00
2019-01-20T04:57:45.827Z,100.00
2019-01-20T05:02:49.938Z,100.00
2019-01-20T05:07:53.980Z,100.00
2019-01-20T05:12:58.063Z,100.00
2019-01-20T05:18:02.138Z,100.00
2019-01-20T05:23:06.204Z,100.00
2019-01-20T05:28:10.216Z,100.00
2019-01-20T05:33:14.291Z,100.00
2019-01-20T05:38:18.375Z,100.00
2019-01-20T05:43:22.420Z,100.00
2019-01-20T05:48:29.472Z,100.00
2019-01-20T05:53:33.510Z,100.00
2019-01-20T05:58:37.624Z,100.00
2019-01-20T06:03:41.709Z,100.00
2019-01-20T06:08:46.084Z,100.00
2019-01-20T06:13:50.115Z,100.00
2019-01-20T06:18:54.175Z,100.00
2019-01-20T06:23:58.191Z,100.00
2019-01-20T06:29:02.538Z,100.00
2019-01-20T06:34:06.594Z,100.00
2019-01-20T06:39:10.667Z,100.00
2019-01-20T06:44:14.757Z,100.00
2019-01-20T06:49:19.199Z,100.00
2019-01-20T06:54:23.269Z,100.00
2019-01-20T06:59:27.358Z,100.00
2019-01-20T07:04:31.414Z,100.00
2019-01-20T07:09:35.491Z,100.00
2019-01-20T07:14:39.616Z,100.00
2019-01-20T07:19:44.981Z,100.00
2019-01-20T07:24:49.293Z,100.00
2019-01-20T07:29:53.343Z,100.00
2019-01-20T07:34:57.772Z,100.00
2019-01-20T07:40:01.962Z,100.00
2019-01-20T07:45:08.033Z,100.00
2019-01-20T07:50:20.255Z,100.00
2019-01-20T07:55:24.803Z,100.00
2019-01-20T08:00:28.945Z,100.00
2019-01-20T08:05:33.003Z,100.00
2019-01-20T08:10:37.091Z,100.00
2019-01-20T08:15:41.125Z,100.00
2019-01-20T08:20:46.202Z,100.00
2019-01-20T08:25:50.817Z,100.00
2019-01-20T08:30:54.991Z,100.00
2019-01-20T08:35:59.055Z,100.00
2019-01-20T08:41:03.745Z,100.00
2019-01-20T08:46:27.615Z,100.00
2019-01-20T08:51:32.291Z,100.00
2019-01-20T08:56:36.421Z,100.00
2019-01-20T09:01:40.747Z,100.00
2019-01-20T09:06:44.905Z,100.00
2019-01-20T09:11:48.933Z,100.00
2019-01-20T09:16:52.970Z,100.00
2019-01-20T09:21:57.525Z,100.00
2019-01-20T09:27:01.852Z,100.00
2019-01-20T09:32:05.910Z,100.00
2019-01-20T09:37:10.199Z,100.00
2019-01-20T09:42:14.365Z,100.00
2019-01-20T09:47:18.461Z,100.00
2019-01-20T09:52:22.549Z,100.00
2019-01-20T09:57:26.669Z,100.00
2019-01-20T10:02:31.550Z,100.00
2019-01-20T10:07:37.979Z,100.00
2019-01-20T10:12:42.040Z,100.00
2019-01-20T10:17:46.188Z,100.00
2019-01-20T10:22:51.338Z,100.00
2019-01-20T10:27:56.334Z,100.00
2019-01-20T10:33:00.525Z,91.37
2019-01-20T10:38:07.826Z,88.99
2019-01-20T10:43:11.997Z,77.29
2019-01-20T10:48:16.072Z,82.73
2019-01-20T10:53:20.128Z,80.80
2019-01-20T10:58:24.389Z,74.12
2019-01-20T11:03:28.511Z,68.62
2019-01-20T11:08:32.589Z,68.71
2019-01-20T11:13:38.169Z,61.10
2019-01-20T11:18:42.316Z,60.58
2019-01-20T11:23:46.438Z,59.33
2019-01-20T11:28:50.592Z,61.34
2019-01-20T11:33:55.016Z,60.13
2019-01-20T11:38:59.346Z,56.51
2019-01-20T11:44:03.448Z,58.86
2019-01-20T11:49:07.786Z,58.68
2019-01-20T11:54:12.020Z,56.12
2019-01-20T11:59:16.459Z,53.69
2019-01-20T12:04:21.645Z,56.95
2019-01-20T12:09:25.809Z,62.03
2019-01-20T12:14:29.883Z,63.30
2019-01-20T12:19:33.921Z,66.29
2019-01-20T12:24:38.039Z,66.03
2019-01-20T12:29:42.176Z,62.77
2019-01-20T12:34:46.249Z,63.30
2019-01-20T12:39:50.368Z,60.88
2019-01-20T12:44:54.491Z,59.02
2019-01-20T12:49:59.714Z,61.17
2019-01-20T12:55:05.317Z,59.48
2019-01-20T13:00:11.625Z,58.78
2019-01-20T13:05:16.038Z,58.87
2019-01-20T13:10:20.517Z,57.98
2019-01-20T13:15:24.603Z,57.33
2019-01-20T13:20:29.523Z,58.02
2019-01-20T13:25:33.653Z,57.41
2019-01-20T13:30:37.671Z,56.08
2019-01-20T13:35:41.882Z,57.77
2019-01-20T13:40:49.558Z,56.62
2019-01-20T13:45:53.987Z,57.20
2019-01-20T13:50:59.552Z,58.08
2019-01-20T13:56:03.754Z,56.39
2019-01-20T14:01:08.665Z,58.21
2019-01-20T14:06:14.335Z,55.75
2019-01-20T14:11:18.603Z,57.64
2019-01-20T14:16:22.823Z,57.25
2019-01-20T14:21:26.991Z,58.52
2019-01-20T14:26:31.301Z,59.65
2019-01-20T14:31:35.330Z,59.85
2019-01-20T14:36:39.452Z,60.44
2019-01-20T14:41:44.155Z,61.81
2019-01-20T14:46:48.279Z,62.69
2019-01-20T14:51:52.311Z,63.45
2019-01-20T14:56:56.405Z,64.77
2019-01-20T15:02:00.426Z,66.91
2019-01-20T15:07:04.452Z,68.79
2019-01-20T15:12:08.513Z,71.44
2019-01-20T15:17:12.562Z,73.99
2019-01-20T15:22:16.807Z,75.70
2019-01-20T15:27:20.876Z,78.47
2019-01-20T15:32:26.004Z,80.14
2019-01-20T15:37:30.092Z,81.58
2019-01-20T15:42:34.202Z,82.69
2019-01-20T15:47:38.218Z,84.42
2019-01-20T15:52:42.346Z,86.35
2019-01-20T15:57:46.478Z,88.27
2019-01-20T16:02:51.076Z,90.38
2019-01-20T16:07:55.274Z,92.37
2019-01-20T16:13:00.036Z,96.44
2019-01-20T16:18:04.707Z,97.70
2019-01-20T16:23:08.840Z,95.98
2019-01-20T16:28:12.989Z,95.32
2019-01-20T16:33:17.032Z,96.26
2019-01-20T16:38:21.168Z,97.49
2019-01-20T16:43:25.221Z,98.23
2019-01-20T16:48:29.367Z,100.00
2019-01-20T16:53:33.422Z,100.00
2019-01-20T16:58:37.476Z,100.00
2019-01-20T17:03:41.640Z,100.00
2019-01-20T17:08:45.713Z,100.00
2019-01-20T17:13:49.788Z,100.00
2019-01-20T17:18:54.935Z,100.00
2019-01-20T17:23:59.233Z,100.00
2019-01-20T17:29:03.406Z,100.00
2019-01-20T17:34:07.467Z,100.00
2019-01-20T17:39:14.075Z,100.00
2019-01-20T17:44:20.217Z,100.00
2019-01-20T17:49:24.697Z,100.00
2019-01-20T17:54:28.895Z,100.00
2019-01-20T17:59:33.114Z,100.00
2019-01-20T18:04:40.805Z,100.00
2019-01-20T18:09:47.080Z,100.00
2019-01-20T18:14:51.139Z,100.00
2019-01-20T18:20:06.892Z,100.00
2019-01-20T18:25:12.892Z,99.95
2019-01-20T18:30:20.780Z,99.67
2019-01-20T18:35:25.896Z,99.37
2019-01-20T18:40:30.836Z,99.49
2019-01-20T18:45:38.071Z,99.40
2019-01-20T18:50:42.616Z,98.98
2019-01-20T18:55:47.225Z,99.24
2019-01-20T19:00:52.327Z,99.13
2019-01-20T19:05:56.399Z,99.22
2019-01-20T19:11:01.251Z,98.61
2019-01-20T19:16:09.063Z,98.33
2019-01-20T19:21:11.388Z,98.32
2019-01-20T19:26:15.440Z,98.12
2019-01-20T19:31:19.509Z,97.99
2019-01-20T19:36:23.912Z,98.10
2019-01-20T19:41:29.574Z,98.12
2019-01-20T19:46:33.625Z,97.50
2019-01-20T19:51:37.680Z,97.89
2019-01-20T19:56:42.401Z,97.87
2019-01-20T20:01:49.078Z,97.83
2019-01-20T20:06:55.946Z,97.48
2019-01-20T20:12:01.308Z,97.32
2019-01-20T20:17:05.706Z,97.78
2019-01-20T20:22:09.858Z,98.08
2019-01-20T20:27:14.440Z,97.49
2019-01-20T20:32:18.905Z,97.29
2019-01-20T20:37:25.826Z,97.24
2019-01-20T20:42:33.567Z,97.86
2019-01-20T20:47:40.554Z,97.59
2019-01-20T20:52:46.212Z,97.98
2019-01-20T20:57:50.502Z,98.24
2019-01-20T21:02:54.548Z,98.24
2019-01-20T21:07:58.971Z,98.53
2019-01-20T21:13:03.342Z,98.51
2019-01-20T21:18:07.539Z,98.27
2019-01-20T21:23:12.815Z,97.28
2019-01-20T21:28:17.339Z,95.95
2019-01-20T21:33:22.193Z,95.83
2019-01-20T21:38:27.285Z,95.57
2019-01-20T21:43:32.301Z,95.40
2019-01-20T21:48:36.818Z,95.03
2019-01-20T21:53:41.386Z,94.84
2019-01-20T21:58:45.629Z,95.29
2019-01-20T22:03:49.729Z,95.24
2019-01-20T22:08:53.763Z,96.25
2019-01-20T22:13:57.856Z,96.49
2019-01-20T22:19:02.013Z,96.45
2019-01-20T22:24:06.292Z,96.07
2019-01-20T22:29:10.356Z,95.94
2019-01-20T22:34:14.588Z,95.48
2019-01-20T22:39:18.629Z,96.01
2019-01-20T22:44:22.623Z,95.76
2019-01-20T22:49:26.876Z,96.13
2019-01-20T22:54:30.896Z,96.09
2019-01-20T22:59:35.028Z,95.47
2019-01-20T23:04:39.038Z,95.54
2019-01-20T23:09:44.334Z,95.25
2019-01-20T23:14:48.569Z,95.73
2019-01-20T23:19:55.377Z,96.06
2019-01-20T23:25:00.556Z,95.69
2019-01-20T23:30:06.735Z,95.08
2019-01-20T23:35:10.767Z,95.20
2019-01-20T23:40:15.831Z,93.40
2019-01-20T23:45:19.960Z,93.55
2019-01-20T23:50:24.020Z,93.09
2019-01-20T23:55:28.231Z,93.32
